Time;durP1;ratioP1;P1;durP2;ratioP2;P2;SDS_P1;SDS_P2;PMS_P1;PMS_P2;Temp;Humidity;BMP_temperature;BMP_pressure;BME280_temperature;BME280_humidity;BME280_pressure;Samples;Min_cycle;Max_cycle;Signal;HPM_P1;HPM_P2
2021/07/01 00:07:05;;;;;;;6.5;3.7;;;;;;;17.53;100;97955.17;;;;
2021/07/01 00:17:04;;;;;;;5.2;3.3;;;;;;;17.43;100;97936.73;;;;
2021/07/01 00:27:04;;;;;;;6.7;4.4;;;;;;;17.4;100;97940.2;;;;
2021/07/01 00:37:03;;;;;;;7.8;3.5;;;;;;;17.22;100;97941.88;;;;
2021/07/01 00:47:03;;;;;;;6.4;3.2;;;;;;;17.05;100;97938.52;;;;
2021/07/01 00:57:02;;;;;;;12.2;9;;;;;;;16.87;100;97923.08;;;;
2021/07/01 01:07:02;;;;;;;8;4.6;;;;;;;16.93;100;97925.13;;;;
2021/07/01 01:17:02;;;;;;;6.7;3.8;;;;;;;17.03;100;97956.38;;;;
2021/07/01 01:27:01;;;;;;;6.9;4.1;;;;;;;17.06;100;97970.05;;;;
2021/07/01 01:37:01;;;;;;;4.9;3.2;;;;;;;17.04;100;97966.13;;;;
2021/07/01 01:47:00;;;;;;;5.6;3.7;;;;;;;17.2;100;97960.52;;;;
2021/07/01 01:57:00;;;;;;;6;3.9;;;;;;;17.34;100;97966.19;;;;
2021/07/01 02:06:59;;;;;;;6.3;3.7;;;;;;;17.36;100;97963.88;;;;
2021/07/01 02:16:59;;;;;;;5;4.3;;;;;;;17.46;100;97971.41;;;;
2021/07/01 02:26:59;;;;;;;6;3.4;;;;;;;17.55;100;97974.67;;;;
2021/07/01 02:36:58;;;;;;;9;6;;;;;;;17.56;100;97974.33;;;;
2021/07/01 02:46:58;;;;;;;7.5;4.7;;;;;;;17.62;100;97984.92;;;;
2021/07/01 02:56:58;;;;;;;8.5;4;;;;;;;17.59;100;97983.72;;;;
2021/07/01 03:06:57;;;;;;;6.8;3.3;;;;;;;17.74;100;97990.92;;;;
2021/07/01 03:16:57;;;;;;;6.9;3.9;;;;;;;17.82;100;97976.25;;;;
2021/07/01 03:26:59;;;;;;;5.6;3.8;;;;;;;17.9;100;97967.02;;;;
2021/07/01 03:36:56;;;;;;;6.6;3.8;;;;;;;18.02;100;97980.4;;;;
2021/07/01 03:46:55;;;;;;;7.3;3.2;;;;;;;18.16;100;97990.69;;;;
2021/07/01 03:56:57;;;;;;;4.7;3;;;;;;;18.3;100;98000.98;;;;
2021/07/01 04:06:55;;;;;;;8.7;3.9;;;;;;;18.24;100;97994.3;;;;
2021/07/01 04:16:55;;;;;;;11.8;3.7;;;;;;;18.31;100;97988.92;;;;
2021/07/01 04:26:54;;;;;;;7.1;3.7;;;;;;;18.48;100;97993.79;;;;
2021/07/01 04:36:54;;;;;;;6.1;3.4;;;;;;;18.46;100;98004.3;;;;
2021/07/01 04:46:53;;;;;;;8.8;5.8;;;;;;;18.65;100;97995.95;;;;
2021/07/01 04:56:53;;;;;;;7.8;5.6;;;;;;;18.92;100;98005.57;;;;
2021/07/01 05:06:53;;;;;;;6.7;4.4;;;;;;;18.89;100;97989.95;;;;
2021/07/01 05:16:53;;;;;;;7.9;5.9;;;;;;;18.86;100;97998.89;;;;
2021/07/01 05:26:52;;;;;;;9.1;5.5;;;;;;;19.09;100;98006.89;;;;
2021/07/01 05:36:52;;;;;;;10.5;5.8;;;;;;;19.17;100;98013.2;;;;
2021/07/01 05:46:52;;;;;;;9.3;5.5;;;;;;;19.24;100;98029.66;;;;
2021/07/01 05:56:52;;;;;;;12.7;5.7;;;;;;;19.58;100;98031.91;;;;
2021/07/01 06:06:52;;;;;;;16.3;7.3;;;;;;;19.38;100;98036.02;;;;
2021/07/01 06:16:52;;;;;;;8.4;6.4;;;;;;;19.72;100;98036.69;;;;
2021/07/01 06:26:52;;;;;;;11.8;7.1;;;;;;;19.84;100;98044.59;;;;
2021/07/01 06:36:52;;;;;;;13;6.9;;;;;;;19.86;100;98044.98;;;;
2021/07/01 06:46:52;;;;;;;13.3;6.6;;;;;;;19.92;100;98059.86;;;;
2021/07/01 06:56:52;;;;;;;9;5.6;;;;;;;20.28;100;98060.09;;;;
2021/07/01 07:06:52;;;;;;;10.4;5.9;;;;;;;20.59;100;98062.17;;;;
2021/07/01 07:16:52;;;;;;;11;5.7;;;;;;;20.54;100;98062.56;;;;
2021/07/01 07:26:53;;;;;;;7.1;5;;;;;;;20.2;100;98077.63;;;;
2021/07/01 07:36:52;;;;;;;7.9;5.9;;;;;;;20.2;100;98078.39;;;;
2021/07/01 07:46:52;;;;;;;14.8;6.8;;;;;;;20.22;100;98083.49;;;;
2021/07/01 07:56:52;;;;;;;10.2;5.9;;;;;;;20.54;100;98081.73;;;;
2021/07/01 08:06:52;;;;;;;9.5;5.3;;;;;;;20.01;100;98081.42;;;;
2021/07/01 08:16:53;;;;;;;7.2;5;;;;;;;19.89;100;98090.71;;;;
2021/07/01 08:26:53;;;;;;;10.6;6.7;;;;;;;19.88;100;98069.23;;;;
2021/07/01 08:36:53;;;;;;;12;7;;;;;;;20.1;100;98059.97;;;;
2021/07/01 08:46:54;;;;;;;10.8;6.2;;;;;;;20.44;100;98072.28;;;;
2021/07/01 08:56:53;;;;;;;11.8;6.7;;;;;;;20.58;100;98072.34;;;;
2021/07/01 09:06:56;;;;;;;9.4;7.4;;;;;;;20.85;100;98088.48;;;;
2021/07/01 09:16:53;;;;;;;9.5;7.2;;;;;;;20.99;100;98094;;;;
2021/07/01 09:26:53;;;;;;;11;5.9;;;;;;;20.82;100;98100.22;;;;
2021/07/01 09:36:53;;;;;;;11.9;6.2;;;;;;;20.54;100;98095.42;;;;
2021/07/01 09:46:53;;;;;;;11.1;4.7;;;;;;;20.56;100;98104.02;;;;
2021/07/01 09:56:53;;;;;;;11.5;6.9;;;;;;;21.01;100;98106.13;;;;
2021/07/01 10:06:54;;;;;;;10.2;6.2;;;;;;;20.83;100;98101.77;;;;
2021/07/01 10:16:54;;;;;;;10.7;7.6;;;;;;;21.14;100;98120.28;;;;
2021/07/01 10:26:54;;;;;;;10;5.1;;;;;;;21.17;100;98129.7;;;;
2021/07/01 10:36:54;;;;;;;11.6;6.4;;;;;;;21.1;100;98130.47;;;;
2021/07/01 10:46:54;;;;;;;6.2;3.2;;;;;;;20.89;100;98128.42;;;;
2021/07/01 10:56:54;;;;;;;10.4;3.4;;;;;;;20.68;100;98114.64;;;;
2021/07/01 11:06:55;;;;;;;6.7;4.9;;;;;;;20.36;100;98119.97;;;;
2021/07/01 11:16:55;;;;;;;5.7;3.7;;;;;;;20.98;100;98117.09;;;;
2021/07/01 11:26:56;;;;;;;9.4;4.3;;;;;;;21.67;100;98103.1;;;;
2021/07/01 11:36:55;;;;;;;7.4;3.5;;;;;;;22.56;100;98121.79;;;;
2021/07/01 11:46:55;;;;;;;5.8;3.9;;;;;;;22.88;100;98120.91;;;;
2021/07/01 11:56:56;;;;;;;7.2;2.7;;;;;;;23.2;100;98127.03;;;;
2021/07/01 12:06:56;;;;;;;54.1;15.9;;;;;;;23.38;100;98124.95;;;;
2021/07/01 12:16:57;;;;;;;8.4;3.8;;;;;;;22.94;100;98122.84;;;;
2021/07/01 12:26:57;;;;;;;11.9;4;;;;;;;23.94;100;98126.52;;;;
2021/07/01 12:36:58;;;;;;;8.9;3.3;;;;;;;24.07;100;98107.51;;;;
2021/07/01 12:46:59;;;;;;;7.5;4.4;;;;;;;24.11;99.65723;98108.26;;;;
2021/07/01 12:56:59;;;;;;;4.9;2.4;;;;;;;24.15;100;98116.52;;;;
2021/07/01 13:07:00;;;;;;;3.3;1.8;;;;;;;24.06;96.25781;98114.2;;;;
2021/07/01 13:17:00;;;;;;;4.1;1.5;;;;;;;24.47;95.26855;98111.46;;;;
2021/07/01 13:27:01;;;;;;;2.7;1.2;;;;;;;24.78;92.05273;98112.27;;;;
2021/07/01 13:37:01;;;;;;;4.3;1.9;;;;;;;24.11;94.8457;98108.26;;;;
2021/07/01 13:47:02;;;;;;;2.8;1.2;;;;;;;24.53;93.66113;98107.84;;;;
2021/07/01 13:57:02;;;;;;;3.8;1.7;;;;;;;25.26;88.31445;98120.31;;;;
2021/07/01 14:07:03;;;;;;;2.4;1.2;;;;;;;25.75;91.6582;98107.76;;;;
2021/07/01 14:17:04;;;;;;;4.7;2;;;;;;;24.91;91.45313;98108.58;;;;
2021/07/01 14:27:04;;;;;;;3.2;1.9;;;;;;;24.54;92.4209;98114.11;;;;
2021/07/01 14:37:05;;;;;;;3;1.7;;;;;;;25.85;88.67578;98113.11;;;;
2021/07/01 14:47:06;;;;;;;5.1;1.8;;;;;;;25.64;86.72656;98113.45;;;;
2021/07/01 14:57:06;;;;;;;3;1.4;;;;;;;26.2;90.15332;98100.68;;;;
2021/07/01 15:07:07;;;;;;;4.2;1.5;;;;;;;27.85;73.97559;98106.59;;;;
2021/07/01 15:17:10;;;;;;;4.6;1.7;;;;;;;26.45;77.40918;98108.47;;;;
2021/07/01 15:27:09;;;;;;;6.4;2.4;;;;;;;24.84;84.24805;98086.61;;;;
2021/07/01 15:37:10;;;;;;;4.1;2;;;;;;;24.11;88.71777;98083.48;;;;
2021/07/01 15:47:10;;;;;;;4.9;2.2;;;;;;;23.82;90.41113;98085.72;;;;
2021/07/01 15:57:11;;;;;;;2.9;1.5;;;;;;;23.26;93.3623;98091.63;;;;
2021/07/01 16:07:12;;;;;;;6.5;1.8;;;;;;;24.15;93.66113;98091.73;;;;
2021/07/01 16:17:12;;;;;;;2.6;1.3;;;;;;;26.1;86.29004;98106.37;;;;
2021/07/01 16:27:13;;;;;;;3.6;1;;;;;;;28.88;69.10059;98120.48;;;;
2021/07/01 16:37:14;;;;;;;3.2;1.1;;;;;;;27.69;68.93262;98123.23;;;;
2021/07/01 16:47:15;;;;;;;4;1.6;;;;;;;27.33;72.24805;98130.77;;;;
2021/07/01 16:57:16;;;;;;;3.5;1.5;;;;;;;26.77;77.66309;98133.51;;;;
2021/07/01 17:07:17;;;;;;;3.7;2;;;;;;;27.48;75.72266;98135.59;;;;
2021/07/01 17:17:18;;;;;;;6.3;2.2;;;;;;;25.29;81.36133;98109.23;;;;
2021/07/01 17:27:19;;;;;;;3.4;1.5;;;;;;;24.08;85.21973;98124.81;;;;
2021/07/01 17:37:19;;;;;;;4.4;1.6;;;;;;;26.03;78.51953;98135.66;;;;
2021/07/01 17:47:20;;;;;;;3.3;1.4;;;;;;;28.04;70.63184;98140.96;;;;
2021/07/01 17:57:21;;;;;;;3.7;1.6;;;;;;;28.03;68.01758;98146.92;;;;
2021/07/01 18:07:23;;;;;;;3.5;2.1;;;;;;;26.69;70.83105;98145.16;;;;
2021/07/01 18:17:25;;;;;;;3.7;1.8;;;;;;;24.27;79.23633;98146.28;;;;
2021/07/01 18:27:26;;;;;;;5.3;2.8;;;;;;;23.16;84.4082;98147.47;;;;
2021/07/01 18:37:25;;;;;;;6.3;2.5;;;;;;;22.31;88.21484;98166.99;;;;
2021/07/01 18:47:28;;;;;;;4.3;2.1;;;;;;;21.48;96.80078;98183.81;;;;
2021/07/01 18:57:25;;;;;;;4.3;2.3;;;;;;;20.77;100;98193.7;;;;
2021/07/01 19:07:26;;;;;;;4.9;2;;;;;;;20.59;100;98197.13;;;;
2021/07/01 19:17:26;;;;;;;6.8;3.1;;;;;;;20.25;100;98219.55;;;;
2021/07/01 19:27:26;;;;;;;4.6;3.1;;;;;;;19.84;100;98216.89;;;;
2021/07/01 19:37:31;;;;;;;10.3;4.2;;;;;;;19.15;100;98223.95;;;;
2021/07/01 19:47:28;;;;;;;7.5;5.9;;;;;;;19.02;100;98223.39;;;;
2021/07/01 19:57:28;;;;;;;7.6;4.7;;;;;;;18.64;100;98228.36;;;;
2021/07/01 20:07:26;;;;;;;5.2;3.5;;;;;;;18.15;100;98220.98;;;;
2021/07/01 20:17:26;;;;;;;6;3.2;;;;;;;17.92;100;98220.19;;;;
2021/07/01 20:27:27;;;;;;;6.3;3.3;;;;;;;17.47;100;98232.62;;;;
2021/07/01 20:37:26;;;;;;;5.6;2.9;;;;;;;17.23;100;98226.69;;;;
2021/07/01 20:47:28;;;;;;;7.2;2.4;;;;;;;16.96;100;98231.22;;;;
2021/07/01 20:57:26;;;;;;;3.5;2;;;;;;;16.85;100;98225.55;;;;
2021/07/01 21:17:23;;;;;;;4.3;3;;;;;;;16.55;100;98229.92;;;;
2021/07/01 21:27:23;;;;;;;5.2;2.8;;;;;;;16.46;100;98240.2;;;;
2021/07/01 21:37:23;;;;;;;6;2.5;;;;;;;16.16;100;98239.89;;;;
2021/07/01 21:47:22;;;;;;;4.7;3;;;;;;;16.17;100;98230.61;;;;
2021/07/01 21:57:22;;;;;;;6.1;3.1;;;;;;;16.13;100;98235.17;;;;
2021/07/01 22:07:21;;;;;;;6.2;3.8;;;;;;;15.99;100;98235.61;;;;
2021/07/01 22:17:20;;;;;;;7.3;4.7;;;;;;;16.06;100;98245.87;;;;
2021/07/01 22:27:20;;;;;;;7.3;4.1;;;;;;;16.15;100;98242.95;;;;
2021/07/01 22:37:19;;;;;;;6.1;4.6;;;;;;;16.06;100;98246.66;;;;
2021/07/01 22:47:19;;;;;;;7.1;4.7;;;;;;;15.98;100;98257.7;;;;
2021/07/01 22:57:18;;;;;;;8;3.9;;;;;;;15.97;100;98258.83;;;;
2021/07/01 23:07:18;;;;;;;6.5;3.6;;;;;;;16.05;100;98258.67;;;;
2021/07/01 23:17:17;;;;;;;4.3;2.3;;;;;;;16.17;100;98257.8;;;;
2021/07/01 23:27:17;;;;;;;4.9;2.8;;;;;;;16.3;100;98250.31;;;;
2021/07/01 23:37:16;;;;;;;5.4;2.7;;;;;;;16.58;100;98242.84;;;;
2021/07/01 23:47:17;;;;;;;6.5;3;;;;;;;16.69;100;98252.04;;;;
2021/07/01 23:57:15;;;;;;;6.4;3.2;;;;;;;16.8;100;98235.94;;;;
